sensor_id;sensor_type;location;lat;lon;timestamp;temperature;humidity
792;DHT22;379;49.022;12.148;2023-01-05T00:00:52;9.50;99.90
792;DHT22;379;49.022;12.148;2023-01-05T00:03:18;9.60;99.90
792;DHT22;379;49.022;12.148;2023-01-05T00:05:45;9.60;99.90
792;DHT22;379;49.022;12.148;2023-01-05T00:08:13;9.60;99.90
792;DHT22;379;49.022;12.148;2023-01-05T00:10:40;9.60;99.90
792;DHT22;379;49.022;12.148;2023-01-05T00:13:24;9.60;99.90
792;DHT22;379;49.022;12.148;2023-01-05T00:16:11;9.60;99.90
792;DHT22;379;49.022;12.148;2023-01-05T00:18:55;9.60;99.90
792;DHT22;379;49.022;12.148;2023-01-05T00:21:39;9.50;99.90
792;DHT22;379;49.022;12.148;2023-01-05T00:24:25;9.50;99.90
792;DHT22;379;49.022;12.148;2023-01-05T00:26:53;9.50;99.90
792;DHT22;379;49.022;12.148;2023-01-05T00:29:20;9.50;99.90
792;DHT22;379;49.022;12.148;2023-01-05T00:31:47;9.50;99.90
792;DHT22;379;49.022;12.148;2023-01-05T00:34:13;9.50;99.90
792;DHT22;379;49.022;12.148;2023-01-05T00:36:40;9.50;99.90
792;DHT22;379;49.022;12.148;2023-01-05T00:39:07;9.50;99.90
792;DHT22;379;49.022;12.148;2023-01-05T00:41:35;9.50;99.90
792;DHT22;379;49.022;12.148;2023-01-05T00:44:02;9.60;99.90
792;DHT22;379;49.022;12.148;2023-01-05T00:46:28;9.60;99.90
792;DHT22;379;49.022;12.148;2023-01-05T00:48:55;9.50;99.90
792;DHT22;379;49.022;12.148;2023-01-05T00:51:22;9.50;99.90
792;DHT22;379;49.022;12.148;2023-01-05T00:53:48;9.50;99.90
792;DHT22;379;49.022;12.148;2023-01-05T00:56:15;9.50;99.90
792;DHT22;379;49.022;12.148;2023-01-05T00:58:43;9.50;99.90
792;DHT22;379;49.022;12.148;2023-01-05T01:01:10;9.50;99.90
792;DHT22;379;49.022;12.148;2023-01-05T01:03:38;9.50;99.90
792;DHT22;379;49.022;12.148;2023-01-05T01:06:05;9.60;99.90
792;DHT22;379;49.022;12.148;2023-01-05T01:08:32;9.60;99.90
792;DHT22;379;49.022;12.148;2023-01-05T01:11:02;9.60;99.90
792;DHT22;379;49.022;12.148;2023-01-05T01:13:29;9.60;99.90
792;DHT22;379;49.022;12.148;2023-01-05T01:15:57;9.60;99.90
792;DHT22;379;49.022;12.148;2023-01-05T01:18:30;9.60;99.90
792;DHT22;379;49.022;12.148;2023-01-05T01:20:57;9.50;99.90
792;DHT22;379;49.022;12.148;2023-01-05T01:23:23;9.50;99.90
792;DHT22;379;49.022;12.148;2023-01-05T01:25:50;9.50;99.90
792;DHT22;379;49.022;12.148;2023-01-05T01:28:17;9.60;99.90
792;DHT22;379;49.022;12.148;2023-01-05T01:30:43;9.60;99.90
792;DHT22;379;49.022;12.148;2023-01-05T01:33:12;9.70;99.90
792;DHT22;379;49.022;12.148;2023-01-05T01:35:38;9.70;99.90
792;DHT22;379;49.022;12.148;2023-01-05T01:38:05;9.70;99.90
792;DHT22;379;49.022;12.148;2023-01-05T01:40:37;9.70;99.90
792;DHT22;379;49.022;12.148;2023-01-05T01:43:09;9.70;99.90
792;DHT22;379;49.022;12.148;2023-01-05T01:45:37;9.70;99.90
792;DHT22;379;49.022;12.148;2023-01-05T01:48:04;9.70;99.90
792;DHT22;379;49.022;12.148;2023-01-05T01:50:35;9.70;99.90
792;DHT22;379;49.022;12.148;2023-01-05T01:53:05;9.80;99.90
792;DHT22;379;49.022;12.148;2023-01-05T01:55:34;9.80;99.90
792;DHT22;379;49.022;12.148;2023-01-05T01:58:04;9.70;99.90
792;DHT22;379;49.022;12.148;2023-01-05T02:00:31;9.60;99.90
792;DHT22;379;49.022;12.148;2023-01-05T02:02:58;9.60;99.90
792;DHT22;379;49.022;12.148;2023-01-05T02:05:28;9.50;99.90
792;DHT22;379;49.022;12.148;2023-01-05T02:07:57;9.50;99.90
792;DHT22;379;49.022;12.148;2023-01-05T02:10:40;9.50;99.90
792;DHT22;379;49.022;12.148;2023-01-05T02:13:19;9.60;99.90
792;DHT22;379;49.022;12.148;2023-01-05T02:15:50;9.60;99.90
792;DHT22;379;49.022;12.148;2023-01-05T02:18:34;9.60;99.90
792;DHT22;379;49.022;12.148;2023-01-05T02:21:24;9.60;99.90
792;DHT22;379;49.022;12.148;2023-01-05T02:24:27;9.60;99.90
792;DHT22;379;49.022;12.148;2023-01-05T02:27:19;9.70;99.90
792;DHT22;379;49.022;12.148;2023-01-05T02:32:54;9.70;99.90
792;DHT22;379;49.022;12.148;2023-01-05T02:35:31;9.70;99.90
792;DHT22;379;49.022;12.148;2023-01-05T02:38:05;9.70;99.90
792;DHT22;379;49.022;12.148;2023-01-05T02:40:38;9.70;99.90
792;DHT22;379;49.022;12.148;2023-01-05T02:43:08;9.60;99.90
792;DHT22;379;49.022;12.148;2023-01-05T02:45:35;9.60;99.90
792;DHT22;379;49.022;12.148;2023-01-05T02:48:03;9.60;99.90
792;DHT22;379;49.022;12.148;2023-01-05T02:50:34;9.60;99.90
792;DHT22;379;49.022;12.148;2023-01-05T02:53:06;9.60;99.90
792;DHT22;379;49.022;12.148;2023-01-05T02:55:42;9.50;99.90
792;DHT22;379;49.022;12.148;2023-01-05T02:58:15;9.50;99.90
792;DHT22;379;49.022;12.148;2023-01-05T03:00:46;9.50;99.90
792;DHT22;379;49.022;12.148;2023-01-05T03:03:21;9.50;99.90
792;DHT22;379;49.022;12.148;2023-01-05T03:05:53;9.50;99.90
792;DHT22;379;49.022;12.148;2023-01-05T03:08:22;9.40;99.90
792;DHT22;379;49.022;12.148;2023-01-05T03:10:58;9.40;99.90
792;DHT22;379;49.022;12.148;2023-01-05T03:13:47;9.40;99.90
792;DHT22;379;49.022;12.148;2023-01-05T03:16:18;9.40;99.90
792;DHT22;379;49.022;12.148;2023-01-05T03:18:49;9.40;99.90
792;DHT22;379;49.022;12.148;2023-01-05T03:21:34;9.40;99.90
792;DHT22;379;49.022;12.148;2023-01-05T03:24:19;9.40;99.90
792;DHT22;379;49.022;12.148;2023-01-05T03:27:05;9.30;99.90
792;DHT22;379;49.022;12.148;2023-01-05T03:29:50;9.30;99.90
792;DHT22;379;49.022;12.148;2023-01-05T03:32:38;9.30;99.90
792;DHT22;379;49.022;12.148;2023-01-05T03:35:27;9.30;99.90
792;DHT22;379;49.022;12.148;2023-01-05T03:38:01;9.30;99.90
792;DHT22;379;49.022;12.148;2023-01-05T03:40:32;9.20;99.90
792;DHT22;379;49.022;12.148;2023-01-05T03:42:59;9.20;99.90
792;DHT22;379;49.022;12.148;2023-01-05T03:45:33;9.20;99.90
792;DHT22;379;49.022;12.148;2023-01-05T03:48:01;9.20;99.90
792;DHT22;379;49.022;12.148;2023-01-05T03:50:29;9.20;99.90
792;DHT22;379;49.022;12.148;2023-01-05T03:52:56;9.30;99.90
792;DHT22;379;49.022;12.148;2023-01-05T03:55:22;9.30;99.90
792;DHT22;379;49.022;12.148;2023-01-05T03:57:49;9.30;99.90
792;DHT22;379;49.022;12.148;2023-01-05T04:00:16;9.30;99.90
792;DHT22;379;49.022;12.148;2023-01-05T04:02:43;9.30;99.90
792;DHT22;379;49.022;12.148;2023-01-05T04:05:10;9.30;99.90
792;DHT22;379;49.022;12.148;2023-01-05T04:07:38;9.30;99.90
792;DHT22;379;49.022;12.148;2023-01-05T04:10:05;9.30;99.90
792;DHT22;379;49.022;12.148;2023-01-05T04:12:32;9.40;99.90
792;DHT22;379;49.022;12.148;2023-01-05T04:14:59;9.40;99.90
792;DHT22;379;49.022;12.148;2023-01-05T04:17:26;9.40;99.90
792;DHT22;379;49.022;12.148;2023-01-05T04:19:52;9.40;99.90
792;DHT22;379;49.022;12.148;2023-01-05T04:22:19;9.40;99.90
792;DHT22;379;49.022;12.148;2023-01-05T04:24:47;9.50;99.90
792;DHT22;379;49.022;12.148;2023-01-05T04:27:14;9.50;99.90
792;DHT22;379;49.022;12.148;2023-01-05T04:29:40;9.50;99.90
792;DHT22;379;49.022;12.148;2023-01-05T04:32:07;9.50;99.90
792;DHT22;379;49.022;12.148;2023-01-05T04:34:34;9.60;99.90
792;DHT22;379;49.022;12.148;2023-01-05T04:37:01;9.60;99.90
792;DHT22;379;49.022;12.148;2023-01-05T04:39:27;9.60;99.90
792;DHT22;379;49.022;12.148;2023-01-05T04:41:55;9.60;99.90
792;DHT22;379;49.022;12.148;2023-01-05T04:44:22;9.60;99.90
792;DHT22;379;49.022;12.148;2023-01-05T04:46:49;9.60;99.90
792;DHT22;379;49.022;12.148;2023-01-05T04:49:16;9.60;99.90
792;DHT22;379;49.022;12.148;2023-01-05T04:51:42;9.60;99.90
792;DHT22;379;49.022;12.148;2023-01-05T04:54:09;9.60;99.90
792;DHT22;379;49.022;12.148;2023-01-05T04:56:36;9.70;99.90
792;DHT22;379;49.022;12.148;2023-01-05T04:59:04;9.70;99.90
792;DHT22;379;49.022;12.148;2023-01-05T05:01:31;9.70;99.90
792;DHT22;379;49.022;12.148;2023-01-05T05:03:57;9.70;99.90
792;DHT22;379;49.022;12.148;2023-01-05T05:06:24;9.60;99.90
792;DHT22;379;49.022;12.148;2023-01-05T05:08:51;9.60;99.90
792;DHT22;379;49.022;12.148;2023-01-05T05:11:17;9.60;99.90
792;DHT22;379;49.022;12.148;2023-01-05T05:13:44;9.50;99.90
792;DHT22;379;49.022;12.148;2023-01-05T05:16:12;9.50;99.90
792;DHT22;379;49.022;12.148;2023-01-05T05:18:39;9.50;99.90
792;DHT22;379;49.022;12.148;2023-01-05T05:21:06;9.50;99.90
792;DHT22;379;49.022;12.148;2023-01-05T05:23:32;9.50;99.90
792;DHT22;379;49.022;12.148;2023-01-05T05:25:59;9.50;99.90
792;DHT22;379;49.022;12.148;2023-01-05T05:28:26;9.50;99.90
792;DHT22;379;49.022;12.148;2023-01-05T05:30:53;9.50;99.90
792;DHT22;379;49.022;12.148;2023-01-05T05:33:22;9.40;99.90
792;DHT22;379;49.022;12.148;2023-01-05T05:35:49;9.40;99.90
792;DHT22;379;49.022;12.148;2023-01-05T05:38:16;9.40;99.90
792;DHT22;379;49.022;12.148;2023-01-05T05:40:43;9.50;99.90
792;DHT22;379;49.022;12.148;2023-01-05T05:43:10;9.50;99.90
792;DHT22;379;49.022;12.148;2023-01-05T05:45:36;9.60;99.90
792;DHT22;379;49.022;12.148;2023-01-05T05:48:03;9.60;99.90
792;DHT22;379;49.022;12.148;2023-01-05T05:50:32;9.60;99.90
792;DHT22;379;49.022;12.148;2023-01-05T05:52:58;9.70;99.90
792;DHT22;379;49.022;12.148;2023-01-05T05:55:25;9.70;99.90
792;DHT22;379;49.022;12.148;2023-01-05T05:57:52;9.70;99.90
792;DHT22;379;49.022;12.148;2023-01-05T06:00:19;9.80;99.90
792;DHT22;379;49.022;12.148;2023-01-05T06:02:45;9.80;99.90
792;DHT22;379;49.022;12.148;2023-01-05T06:05:12;9.80;99.90
792;DHT22;379;49.022;12.148;2023-01-05T06:07:40;9.80;99.90
792;DHT22;379;49.022;12.148;2023-01-05T06:10:08;9.80;99.90
792;DHT22;379;49.022;12.148;2023-01-05T06:12:34;9.80;99.90
792;DHT22;379;49.022;12.148;2023-01-05T06:15:01;9.90;99.90
792;DHT22;379;49.022;12.148;2023-01-05T06:17:28;9.80;99.90
792;DHT22;379;49.022;12.148;2023-01-05T06:19:54;9.80;99.90
792;DHT22;379;49.022;12.148;2023-01-05T06:22:21;9.80;99.90
792;DHT22;379;49.022;12.148;2023-01-05T06:24:49;9.80;99.90
792;DHT22;379;49.022;12.148;2023-01-05T06:27:16;9.70;99.90
792;DHT22;379;49.022;12.148;2023-01-05T06:29:43;9.70;99.90
792;DHT22;379;49.022;12.148;2023-01-05T06:32:10;9.70;99.90
792;DHT22;379;49.022;12.148;2023-01-05T06:34:36;9.70;99.90
792;DHT22;379;49.022;12.148;2023-01-05T06:37:03;9.70;99.90
792;DHT22;379;49.022;12.148;2023-01-05T06:39:30;9.70;99.90
792;DHT22;379;49.022;12.148;2023-01-05T06:41:59;9.70;99.90
792;DHT22;379;49.022;12.148;2023-01-05T06:44:25;9.70;99.90
792;DHT22;379;49.022;12.148;2023-01-05T06:46:52;9.60;99.90
792;DHT22;379;49.022;12.148;2023-01-05T06:49:19;9.50;99.90
792;DHT22;379;49.022;12.148;2023-01-05T06:51:45;9.40;99.90
792;DHT22;379;49.022;12.148;2023-01-05T06:54:12;9.40;99.90
792;DHT22;379;49.022;12.148;2023-01-05T06:56:39;9.30;99.90
792;DHT22;379;49.022;12.148;2023-01-05T06:59:07;9.30;99.90
792;DHT22;379;49.022;12.148;2023-01-05T07:01:34;9.30;99.90
792;DHT22;379;49.022;12.148;2023-01-05T07:04:00;9.30;99.90
792;DHT22;379;49.022;12.148;2023-01-05T07:06:27;9.30;99.90
792;DHT22;379;49.022;12.148;2023-01-05T07:08:54;9.30;99.90
792;DHT22;379;49.022;12.148;2023-01-05T07:11:21;9.30;99.90
792;DHT22;379;49.022;12.148;2023-01-05T07:13:48;9.30;99.90
792;DHT22;379;49.022;12.148;2023-01-05T07:16:17;9.30;99.90
792;DHT22;379;49.022;12.148;2023-01-05T07:18:44;9.20;99.90
792;DHT22;379;49.022;12.148;2023-01-05T07:21:11;9.20;99.90
792;DHT22;379;49.022;12.148;2023-01-05T07:23:37;9.20;99.90
792;DHT22;379;49.022;12.148;2023-01-05T07:26:05;9.20;99.90
792;DHT22;379;49.022;12.148;2023-01-05T07:28:32;9.10;99.90
792;DHT22;379;49.022;12.148;2023-01-05T07:30:59;9.10;99.90
792;DHT22;379;49.022;12.148;2023-01-05T07:33:27;9.10;99.90
792;DHT22;379;49.022;12.148;2023-01-05T07:35:53;9.00;99.90
792;DHT22;379;49.022;12.148;2023-01-05T07:38:20;8.90;99.90
792;DHT22;379;49.022;12.148;2023-01-05T07:40:47;8.90;99.90
792;DHT22;379;49.022;12.148;2023-01-05T07:43:13;9.00;99.90
792;DHT22;379;49.022;12.148;2023-01-05T07:45:41;9.20;99.90
792;DHT22;379;49.022;12.148;2023-01-05T07:48:08;9.10;99.90
792;DHT22;379;49.022;12.148;2023-01-05T07:50:36;9.00;99.90
792;DHT22;379;49.022;12.148;2023-01-05T07:53:03;9.00;99.90
792;DHT22;379;49.022;12.148;2023-01-05T07:55:29;9.00;99.90
792;DHT22;379;49.022;12.148;2023-01-05T07:57:56;9.00;99.90
792;DHT22;379;49.022;12.148;2023-01-05T08:00:23;9.10;99.90
792;DHT22;379;49.022;12.148;2023-01-05T08:02:49;9.10;99.90
792;DHT22;379;49.022;12.148;2023-01-05T08:05:16;9.20;99.90
792;DHT22;379;49.022;12.148;2023-01-05T08:07:44;9.20;99.90
792;DHT22;379;49.022;12.148;2023-01-05T08:10:11;9.30;99.90
792;DHT22;379;49.022;12.148;2023-01-05T08:13:01;9.40;99.90
792;DHT22;379;49.022;12.148;2023-01-05T08:15:45;9.40;99.90
792;DHT22;379;49.022;12.148;2023-01-05T08:18:12;9.40;99.90
792;DHT22;379;49.022;12.148;2023-01-05T08:20:39;9.40;99.90
792;DHT22;379;49.022;12.148;2023-01-05T08:23:07;9.40;99.90
792;DHT22;379;49.022;12.148;2023-01-05T08:25:34;9.40;99.90
792;DHT22;379;49.022;12.148;2023-01-05T08:28:00;9.40;99.90
792;DHT22;379;49.022;12.148;2023-01-05T08:30:27;9.40;99.90
792;DHT22;379;49.022;12.148;2023-01-05T08:32:55;9.50;99.90
792;DHT22;379;49.022;12.148;2023-01-05T08:35:22;9.50;99.90
792;DHT22;379;49.022;12.148;2023-01-05T08:37:49;9.50;99.90
792;DHT22;379;49.022;12.148;2023-01-05T08:40:17;9.60;99.90
792;DHT22;379;49.022;12.148;2023-01-05T08:42:44;9.60;99.90
792;DHT22;379;49.022;12.148;2023-01-05T08:45:13;9.70;99.90
792;DHT22;379;49.022;12.148;2023-01-05T08:47:40;9.70;99.90
792;DHT22;379;49.022;12.148;2023-01-05T08:50:08;9.70;99.90
792;DHT22;379;49.022;12.148;2023-01-05T08:52:36;9.70;99.90
792;DHT22;379;49.022;12.148;2023-01-05T08:55:04;9.70;99.90
792;DHT22;379;49.022;12.148;2023-01-05T08:57:33;9.70;99.90
792;DHT22;379;49.022;12.148;2023-01-05T09:00:00;9.70;99.90
792;DHT22;379;49.022;12.148;2023-01-05T09:02:27;9.70;99.90
792;DHT22;379;49.022;12.148;2023-01-05T09:04:54;9.70;99.90
792;DHT22;379;49.022;12.148;2023-01-05T09:07:21;9.70;99.90
792;DHT22;379;49.022;12.148;2023-01-05T09:09:48;9.70;99.90
792;DHT22;379;49.022;12.148;2023-01-05T09:12:15;9.70;99.90
792;DHT22;379;49.022;12.148;2023-01-05T09:14:44;9.70;99.90
792;DHT22;379;49.022;12.148;2023-01-05T09:17:10;9.80;99.90
792;DHT22;379;49.022;12.148;2023-01-05T09:19:37;9.80;99.90
792;DHT22;379;49.022;12.148;2023-01-05T09:22:04;9.80;99.90
792;DHT22;379;49.022;12.148;2023-01-05T09:24:31;9.80;99.90
792;DHT22;379;49.022;12.148;2023-01-05T09:26:57;9.80;99.90
792;DHT22;379;49.022;12.148;2023-01-05T09:29:24;9.80;99.90
792;DHT22;379;49.022;12.148;2023-01-05T09:31:52;9.90;99.90
792;DHT22;379;49.022;12.148;2023-01-05T09:34:19;9.90;99.90
792;DHT22;379;49.022;12.148;2023-01-05T09:36:46;9.90;99.90
792;DHT22;379;49.022;12.148;2023-01-05T09:39:12;10.00;99.90
792;DHT22;379;49.022;12.148;2023-01-05T09:41:41;9.90;99.90
792;DHT22;379;49.022;12.148;2023-01-05T09:44:14;9.90;99.90
792;DHT22;379;49.022;12.148;2023-01-05T09:46:45;9.90;99.90
792;DHT22;379;49.022;12.148;2023-01-05T09:49:16;9.90;99.90
792;DHT22;379;49.022;12.148;2023-01-05T09:51:45;9.90;99.90
792;DHT22;379;49.022;12.148;2023-01-05T09:54:15;10.00;99.90
792;DHT22;379;49.022;12.148;2023-01-05T09:56:44;10.00;99.90
792;DHT22;379;49.022;12.148;2023-01-05T09:59:14;10.00;99.90
792;DHT22;379;49.022;12.148;2023-01-05T10:01:44;9.90;99.90
792;DHT22;379;49.022;12.148;2023-01-05T10:04:15;9.90;99.90
792;DHT22;379;49.022;12.148;2023-01-05T10:06:45;9.90;99.90
792;DHT22;379;49.022;12.148;2023-01-05T10:09:16;9.90;99.90
792;DHT22;379;49.022;12.148;2023-01-05T10:11:47;9.90;99.90
792;DHT22;379;49.022;12.148;2023-01-05T10:14:38;10.00;99.90
792;DHT22;379;49.022;12.148;2023-01-05T10:17:12;10.10;99.90
792;DHT22;379;49.022;12.148;2023-01-05T10:19:40;10.10;99.90
792;DHT22;379;49.022;12.148;2023-01-05T10:22:19;10.20;99.90
792;DHT22;379;49.022;12.148;2023-01-05T10:24:54;10.20;99.90
792;DHT22;379;49.022;12.148;2023-01-05T10:27:25;10.30;99.90
792;DHT22;379;49.022;12.148;2023-01-05T10:29:59;10.30;99.90
792;DHT22;379;49.022;12.148;2023-01-05T10:32:33;10.40;99.90
792;DHT22;379;49.022;12.148;2023-01-05T10:35:10;10.40;99.90
792;DHT22;379;49.022;12.148;2023-01-05T10:37:54;10.50;99.90
792;DHT22;379;49.022;12.148;2023-01-05T10:40:31;10.50;99.90
792;DHT22;379;49.022;12.148;2023-01-05T10:43:19;10.50;99.90
792;DHT22;379;49.022;12.148;2023-01-05T10:45:47;10.50;99.90
792;DHT22;379;49.022;12.148;2023-01-05T10:48:16;10.50;99.90
792;DHT22;379;49.022;12.148;2023-01-05T10:50:47;10.50;99.90
792;DHT22;379;49.022;12.148;2023-01-05T10:53:15;10.50;99.90
792;DHT22;379;49.022;12.148;2023-01-05T10:55:52;10.50;99.90
792;DHT22;379;49.022;12.148;2023-01-05T10:58:22;10.50;99.90
792;DHT22;379;49.022;12.148;2023-01-05T11:00:49;10.50;99.90
792;DHT22;379;49.022;12.148;2023-01-05T11:03:17;10.50;99.90
792;DHT22;379;49.022;12.148;2023-01-05T11:05:47;10.50;99.90
792;DHT22;379;49.022;12.148;2023-01-05T11:08:16;10.50;99.90
792;DHT22;379;49.022;12.148;2023-01-05T11:10:51;10.50;99.90
792;DHT22;379;49.022;12.148;2023-01-05T11:13:28;10.50;99.90
792;DHT22;379;49.022;12.148;2023-01-05T11:15:59;10.60;99.90
792;DHT22;379;49.022;12.148;2023-01-05T11:18:31;10.70;99.90
792;DHT22;379;49.022;12.148;2023-01-05T11:21:15;10.90;99.90
792;DHT22;379;49.022;12.148;2023-01-05T11:23:43;11.00;99.90
792;DHT22;379;49.022;12.148;2023-01-05T11:26:24;11.00;99.90
792;DHT22;379;49.022;12.148;2023-01-05T11:29:02;11.10;99.90
792;DHT22;379;49.022;12.148;2023-01-05T11:31:34;11.10;99.90
792;DHT22;379;49.022;12.148;2023-01-05T11:34:07;11.00;99.90
792;DHT22;379;49.022;12.148;2023-01-05T11:36:36;11.10;99.90
792;DHT22;379;49.022;12.148;2023-01-05T11:39:03;11.10;99.90
792;DHT22;379;49.022;12.148;2023-01-05T11:41:30;11.00;99.90
792;DHT22;379;49.022;12.148;2023-01-05T11:44:03;11.00;99.90
792;DHT22;379;49.022;12.148;2023-01-05T11:46:40;11.00;99.90
792;DHT22;379;49.022;12.148;2023-01-05T11:49:08;10.90;99.90
792;DHT22;379;49.022;12.148;2023-01-05T11:51:38;10.90;99.90
792;DHT22;379;49.022;12.148;2023-01-05T11:54:25;10.90;99.90
792;DHT22;379;49.022;12.148;2023-01-05T11:57:10;11.00;99.90
792;DHT22;379;49.022;12.148;2023-01-05T11:59:38;11.00;99.90
792;DHT22;379;49.022;12.148;2023-01-05T12:02:21;11.00;99.90
792;DHT22;379;49.022;12.148;2023-01-05T12:05:03;11.00;99.90
792;DHT22;379;49.022;12.148;2023-01-05T12:07:40;11.00;99.90
792;DHT22;379;49.022;12.148;2023-01-05T12:10:28;10.90;99.90
792;DHT22;379;49.022;12.148;2023-01-05T12:13:02;10.90;99.90
792;DHT22;379;49.022;12.148;2023-01-05T12:18:59;10.90;99.90
792;DHT22;379;49.022;12.148;2023-01-05T12:21:36;10.80;99.90
792;DHT22;379;49.022;12.148;2023-01-05T12:27:18;10.80;99.90
792;DHT22;379;49.022;12.148;2023-01-05T12:30:07;10.80;99.90
792;DHT22;379;49.022;12.148;2023-01-05T12:32:44;10.80;99.90
792;DHT22;379;49.022;12.148;2023-01-05T12:35:35;10.90;99.90
792;DHT22;379;49.022;12.148;2023-01-05T12:38:22;10.90;99.90
792;DHT22;379;49.022;12.148;2023-01-05T12:41:04;10.90;99.90
792;DHT22;379;49.022;12.148;2023-01-05T12:43:42;11.00;99.90
792;DHT22;379;49.022;12.148;2023-01-05T12:46:20;10.90;99.90
792;DHT22;379;49.022;12.148;2023-01-05T12:48:54;10.90;99.90
792;DHT22;379;49.022;12.148;2023-01-05T12:51:23;10.90;99.90
792;DHT22;379;49.022;12.148;2023-01-05T12:53:55;10.90;99.90
792;DHT22;379;49.022;12.148;2023-01-05T12:56:28;10.90;99.90
792;DHT22;379;49.022;12.148;2023-01-05T12:59:12;10.90;99.90
792;DHT22;379;49.022;12.148;2023-01-05T13:01:43;10.90;99.90
792;DHT22;379;49.022;12.148;2023-01-05T13:04:31;10.90;99.90
792;DHT22;379;49.022;12.148;2023-01-05T13:07:05;10.90;99.90
792;DHT22;379;49.022;12.148;2023-01-05T13:09:36;10.90;99.90
792;DHT22;379;49.022;12.148;2023-01-05T13:12:07;11.00;99.90
792;DHT22;379;49.022;12.148;2023-01-05T13:14:37;11.00;99.90
792;DHT22;379;49.022;12.148;2023-01-05T13:17:12;11.10;99.90
792;DHT22;379;49.022;12.148;2023-01-05T13:19:44;11.10;99.90
792;DHT22;379;49.022;12.148;2023-01-05T13:22:18;11.20;99.90
792;DHT22;379;49.022;12.148;2023-01-05T13:24:50;11.20;99.90
792;DHT22;379;49.022;12.148;2023-01-05T13:27:19;11.10;99.90
792;DHT22;379;49.022;12.148;2023-01-05T13:29:48;11.10;99.90
792;DHT22;379;49.022;12.148;2023-01-05T13:32:25;11.10;99.90
792;DHT22;379;49.022;12.148;2023-01-05T13:35:15;11.00;99.90
792;DHT22;379;49.022;12.148;2023-01-05T13:41:11;11.00;99.90
792;DHT22;379;49.022;12.148;2023-01-05T13:47:04;11.00;99.90
792;DHT22;379;49.022;12.148;2023-01-05T13:50:01;11.00;99.90
792;DHT22;379;49.022;12.148;2023-01-05T13:52:38;11.00;99.90
792;DHT22;379;49.022;12.148;2023-01-05T13:55:14;11.00;99.90
792;DHT22;379;49.022;12.148;2023-01-05T13:57:43;11.10;99.90
792;DHT22;379;49.022;12.148;2023-01-05T14:00:21;11.20;99.90
792;DHT22;379;49.022;12.148;2023-01-05T14:02:58;11.20;99.90
792;DHT22;379;49.022;12.148;2023-01-05T14:05:29;11.20;99.90
792;DHT22;379;49.022;12.148;2023-01-05T14:07:59;11.20;99.90
792;DHT22;379;49.022;12.148;2023-01-05T14:10:28;11.20;99.90
792;DHT22;379;49.022;12.148;2023-01-05T14:12:56;11.20;99.90
792;DHT22;379;49.022;12.148;2023-01-05T14:15:32;11.10;99.90
792;DHT22;379;49.022;12.148;2023-01-05T14:18:01;11.10;99.90
792;DHT22;379;49.022;12.148;2023-01-05T14:20:34;10.90;99.90
792;DHT22;379;49.022;12.148;2023-01-05T14:23:04;10.70;99.90
792;DHT22;379;49.022;12.148;2023-01-05T14:25:51;10.50;99.90
792;DHT22;379;49.022;12.148;2023-01-05T14:28:22;10.40;99.90
792;DHT22;379;49.022;12.148;2023-01-05T14:34:20;10.10;99.90
792;DHT22;379;49.022;12.148;2023-01-05T14:37:04;9.90;99.90
792;DHT22;379;49.022;12.148;2023-01-05T14:39:39;9.90;99.90
792;DHT22;379;49.022;12.148;2023-01-05T14:42:16;9.80;99.90
792;DHT22;379;49.022;12.148;2023-01-05T14:44:45;9.70;99.90
792;DHT22;379;49.022;12.148;2023-01-05T14:47:15;9.50;99.90
792;DHT22;379;49.022;12.148;2023-01-05T14:49:52;9.50;99.90
792;DHT22;379;49.022;12.148;2023-01-05T14:52:53;9.60;99.90
792;DHT22;379;49.022;12.148;2023-01-05T14:55:21;9.60;99.90
792;DHT22;379;49.022;12.148;2023-01-05T14:57:50;9.60;99.90
792;DHT22;379;49.022;12.148;2023-01-05T15:00:22;9.60;99.90
792;DHT22;379;49.022;12.148;2023-01-05T15:02:56;9.60;99.90
792;DHT22;379;49.022;12.148;2023-01-05T15:05:25;9.60;99.90
792;DHT22;379;49.022;12.148;2023-01-05T15:08:10;9.60;99.90
792;DHT22;379;49.022;12.148;2023-01-05T15:10:54;9.50;99.90
792;DHT22;379;49.022;12.148;2023-01-05T15:17:05;9.40;99.90
792;DHT22;379;49.022;12.148;2023-01-05T15:19:55;9.40;99.90
792;DHT22;379;49.022;12.148;2023-01-05T15:22:52;9.50;99.90
792;DHT22;379;49.022;12.148;2023-01-05T15:25:44;9.50;99.90
792;DHT22;379;49.022;12.148;2023-01-05T15:28:34;9.50;99.90
792;DHT22;379;49.022;12.148;2023-01-05T15:31:18;9.50;99.90
792;DHT22;379;49.022;12.148;2023-01-05T15:33:49;9.40;99.90
792;DHT22;379;49.022;12.148;2023-01-05T15:36:24;9.30;99.90
792;DHT22;379;49.022;12.148;2023-01-05T15:38:53;9.30;99.90
792;DHT22;379;49.022;12.148;2023-01-05T15:41:22;9.30;99.90
792;DHT22;379;49.022;12.148;2023-01-05T15:43:51;9.30;99.90
792;DHT22;379;49.022;12.148;2023-01-05T15:46:21;9.30;99.90
792;DHT22;379;49.022;12.148;2023-01-05T15:48:50;9.20;99.90
792;DHT22;379;49.022;12.148;2023-01-05T15:51:23;9.10;99.90
792;DHT22;379;49.022;12.148;2023-01-05T15:53:56;9.10;99.90
792;DHT22;379;49.022;12.148;2023-01-05T15:56:26;9.10;99.90
792;DHT22;379;49.022;12.148;2023-01-05T15:58:54;8.90;99.90
792;DHT22;379;49.022;12.148;2023-01-05T16:01:21;8.80;99.90
792;DHT22;379;49.022;12.148;2023-01-05T16:03:48;8.70;99.90
792;DHT22;379;49.022;12.148;2023-01-05T16:06:18;8.70;99.90
792;DHT22;379;49.022;12.148;2023-01-05T16:08:47;8.70;99.90
792;DHT22;379;49.022;12.148;2023-01-05T16:11:21;8.80;99.90
792;DHT22;379;49.022;12.148;2023-01-05T16:13:51;8.80;99.90
792;DHT22;379;49.022;12.148;2023-01-05T16:16:22;8.90;99.90
792;DHT22;379;49.022;12.148;2023-01-05T16:18:54;8.90;99.90
792;DHT22;379;49.022;12.148;2023-01-05T16:21:33;8.80;99.90
792;DHT22;379;49.022;12.148;2023-01-05T16:24:03;8.70;99.90
792;DHT22;379;49.022;12.148;2023-01-05T16:26:34;8.70;99.90
792;DHT22;379;49.022;12.148;2023-01-05T16:29:18;8.70;99.90
792;DHT22;379;49.022;12.148;2023-01-05T16:31:51;8.80;99.90
792;DHT22;379;49.022;12.148;2023-01-05T16:34:19;8.80;99.90
792;DHT22;379;49.022;12.148;2023-01-05T16:37:02;8.80;99.90
792;DHT22;379;49.022;12.148;2023-01-05T16:39:35;8.90;99.90
792;DHT22;379;49.022;12.148;2023-01-05T16:42:13;8.90;99.90
792;DHT22;379;49.022;12.148;2023-01-05T16:45:07;8.90;99.90
792;DHT22;379;49.022;12.148;2023-01-05T16:47:36;8.90;99.90
792;DHT22;379;49.022;12.148;2023-01-05T16:53:11;8.90;99.90
792;DHT22;379;49.022;12.148;2023-01-05T16:55:39;8.80;99.90
792;DHT22;379;49.022;12.148;2023-01-05T16:58:33;8.70;99.90
792;DHT22;379;49.022;12.148;2023-01-05T17:03:58;8.60;99.90
792;DHT22;379;49.022;12.148;2023-01-05T17:06:27;8.50;99.90
792;DHT22;379;49.022;12.148;2023-01-05T17:08:56;8.40;99.90
792;DHT22;379;49.022;12.148;2023-01-05T17:11:26;8.30;99.90
792;DHT22;379;49.022;12.148;2023-01-05T17:13:56;8.20;99.90
792;DHT22;379;49.022;12.148;2023-01-05T17:16:23;8.10;99.90
792;DHT22;379;49.022;12.148;2023-01-05T17:18:49;8.00;99.90
792;DHT22;379;49.022;12.148;2023-01-05T17:21:18;8.00;99.90
792;DHT22;379;49.022;12.148;2023-01-05T17:23:47;7.90;99.90
792;DHT22;379;49.022;12.148;2023-01-05T17:26:29;7.80;99.90